»·PEaware :: ASA1086 KSEA-KONT

ASA1086 :: KSEA-KONT

FLIGHT INFORMATION

Flight Status: Arrived
Operator:
Alaska Airlines
More flights by this operator :: More flights under this callsign
Pilot: Jules P. (45166)
Aircraft: BOEING 737-900
(B739)
More flights by this aircraft type
Origin: KSEA Seattle-Tacoma Intl
United States
Destination: KONT Ontario Intl
United States
More flights between these airports :: More routes between these airports
Route: SUMMA2 SUMMA PAAGE Q11 PASKE TTE ZIGGY7
File this flight plan on PilotEdge
Remarks: RMK / SIMBRIEF
Altitude:
(Current/Filed)
41,000ft
Speed:
(Current/Filed)
459kts
Departed: 12-Sep-23 05:36 PM
Arrived: 12-Sep-23 07:40 PM
Distance/Time
Traveled:
831nm/2:03
Distance/Time
To Go:
Arrived

Flight Plot

Page will automatically refresh every two minutes.

Flight plan parsing failed; only flown route is shown


Map Options




Map Legend


Flown Route
Filed Route
Departure Airport
Arrival Airport
Navaid (VOR, NDB)
Fix

Horizontal Profiles

Position Reports

Time Latitude Longitude Heading Altitude Ground
Speed
12-Sep-23 17:05 47.447770 -122.301050 304 441ft 0kts
12-Sep-23 17:06 47.447770 -122.301050 304 441ft 0kts
12-Sep-23 17:07 47.447770 -122.301050 304 441ft 0kts
12-Sep-23 17:08 47.447770 -122.301050 304 441ft 0kts
12-Sep-23 17:09 47.447770 -122.301050 304 441ft 0kts
12-Sep-23 17:10 47.447770 -122.301050 304 441ft 0kts
12-Sep-23 17:11 47.447770 -122.301050 304 441ft 0kts
12-Sep-23 17:12 47.447770 -122.301050 304 441ft 0kts
12-Sep-23 17:13 47.447770 -122.301050 304 441ft 0kts
12-Sep-23 17:14 47.447770 -122.301050 304 441ft 0kts
12-Sep-23 17:15 47.447770 -122.301050 304 441ft 0kts
12-Sep-23 17:16 47.447770 -122.301050 304 441ft 0kts
12-Sep-23 17:17 47.447770 -122.301050 304 441ft 0kts
12-Sep-23 17:18 47.447770 -122.301050 304 441ft 0kts
12-Sep-23 17:19 47.447770 -122.301050 304 441ft 0kts
12-Sep-23 17:20 47.447770 -122.301050 304 441ft 0kts
12-Sep-23 17:21 47.447309 -122.300410 351 441ft 2kts
12-Sep-23 17:22 47.447140 -122.300459 48 441ft 0kts
12-Sep-23 17:23 47.447140 -122.300459 48 441ft 0kts
12-Sep-23 17:24 47.447140 -122.300459 48 441ft 0kts
12-Sep-23 17:25 47.447984 -122.299864 2 441ft 14kts
12-Sep-23 17:26 47.449912 -122.302746 269 441ft 0kts
12-Sep-23 17:27 47.449912 -122.302746 269 441ft 0kts
12-Sep-23 17:28 47.449912 -122.302746 269 441ft 0kts
12-Sep-23 17:29 47.449912 -122.302746 269 441ft 0kts
12-Sep-23 17:30 47.449907 -122.303453 273 441ft 10kts
12-Sep-23 17:31 47.454063 -122.306251 0 441ft 20kts
12-Sep-23 17:32 47.459854 -122.306207 0 441ft 27kts
12-Sep-23 17:33 47.463681 -122.306456 303 441ft 0kts
12-Sep-23 17:34 47.463681 -122.306456 303 441ft 0kts
12-Sep-23 17:35 47.452268 -122.307889 180 443ft 143kts
12-Sep-23 17:36 47.407136 -122.308240 180 3660ft 164kts
12-Sep-23 17:37 47.349039 -122.308779 181 6138ft 248kts
12-Sep-23 17:38 47.274206 -122.309452 181 9974ft 287kts
12-Sep-23 17:39 47.190168 -122.278623 155 12750ft 360kts
12-Sep-23 17:40 47.093348 -122.226288 165 16286ft 379kts
12-Sep-23 17:41 46.990944 -122.175223 165 19496ft 396kts
12-Sep-23 17:42 46.885033 -122.121522 165 22279ft 410kts
12-Sep-23 17:43 46.775291 -122.066353 166 24605ft 422kts
12-Sep-23 17:44 46.662736 -122.010243 165 26584ft 433kts
12-Sep-23 17:45 46.558398 -121.914727 144 28247ft 458kts
12-Sep-23 17:46 46.460847 -121.792930 146 29665ft 465kts
12-Sep-23 17:47 46.344776 -121.724395 174 30843ft 451kts
12-Sep-23 17:48 46.221534 -121.692535 175 32283ft 447kts
12-Sep-23 17:49 46.099603 -121.660706 175 33586ft 443kts
12-Sep-23 17:50 45.978412 -121.628719 175 34572ft 444kts
12-Sep-23 17:51 45.856827 -121.596902 175 35425ft 446kts
12-Sep-23 17:52 45.734814 -121.565155 175 36253ft 447kts
12-Sep-23 17:53 45.612179 -121.533394 174 36924ft 450kts
12-Sep-23 17:54 45.489103 -121.501654 174 37603ft 451kts
12-Sep-23 17:55 45.365386 -121.469896 174 38199ft 453kts
12-Sep-23 17:56 45.241187 -121.438155 174 38810ft 453kts
12-Sep-23 17:57 45.116626 -121.406464 174 39335ft 455kts
12-Sep-23 17:58 44.991892 -121.374878 173 39848ft 456kts
12-Sep-23 17:59 44.866863 -121.343342 173 40332ft 457kts
12-Sep-23 18:00 44.741576 -121.311884 173 40790ft 457kts
12-Sep-23 18:01 44.616320 -121.280573 173 41119ft 459kts
12-Sep-23 18:02 44.490398 -121.249234 173 41124ft 458kts
12-Sep-23 18:03 44.365066 -121.218179 173 41111ft 458kts
12-Sep-23 18:04 44.239607 -121.187227 173 41101ft 459kts
12-Sep-23 18:05 44.113721 -121.156303 173 41113ft 459kts
12-Sep-23 18:06 43.988114 -121.125583 173 41128ft 459kts
12-Sep-23 18:07 43.861672 -121.094790 172 41141ft 461kts
12-Sep-23 18:08 43.735096 -121.064094 172 41121ft 461kts
12-Sep-23 18:09 43.608964 -121.033638 172 41150ft 462kts
12-Sep-23 18:10 43.481962 -121.003042 172 41178ft 462kts
12-Sep-23 18:11 43.355403 -120.972717 172 41176ft 463kts
12-Sep-23 18:12 43.228278 -120.942472 172 41171ft 463kts
12-Sep-23 18:13 43.101606 -120.911887 172 41165ft 463kts
12-Sep-23 18:14 42.974604 -120.880992 172 41157ft 464kts
12-Sep-23 18:15 42.847250 -120.850158 172 41153ft 464kts
12-Sep-23 18:16 42.719953 -120.819171 172 41150ft 464kts
12-Sep-23 18:17 42.592610 -120.788455 172 41149ft 465kts
12-Sep-23 18:18 42.465487 -120.757948 172 41149ft 466kts
12-Sep-23 18:19 42.337604 -120.727390 172 41148ft 466kts
12-Sep-23 18:20 42.210027 -120.697031 172 41149ft 466kts
12-Sep-23 18:21 42.082182 -120.666732 172 41145ft 467kts
12-Sep-23 18:22 41.954149 -120.636515 172 41142ft 467kts
12-Sep-23 18:23 41.826272 -120.606452 172 41135ft 467kts
12-Sep-23 18:24 41.698067 -120.576439 172 41127ft 467kts
12-Sep-23 18:25 41.569732 -120.546515 172 41121ft 467kts
12-Sep-23 18:26 41.441858 -120.516817 172 41120ft 467kts
12-Sep-23 18:27 41.314270 -120.487269 172 41120ft 466kts
12-Sep-23 18:28 41.186325 -120.457745 172 41120ft 466kts
12-Sep-23 18:29 41.058381 -120.428440 172 41117ft 466kts
12-Sep-23 18:30 40.930895 -120.394342 168 41112ft 467kts
12-Sep-23 18:31 40.804883 -120.354505 168 41103ft 466kts
12-Sep-23 18:32 40.678519 -120.315425 169 41099ft 467kts
12-Sep-23 18:33 40.551875 -120.276176 169 41096ft 466kts
12-Sep-23 18:34 40.425627 -120.237398 169 41096ft 466kts
12-Sep-23 18:35 40.299794 -120.198936 169 41101ft 466kts
12-Sep-23 18:36 40.173651 -120.160534 169 41114ft 465kts
12-Sep-23 18:37 40.047285 -120.122211 169 41126ft 465kts
12-Sep-23 18:38 39.921312 -120.084152 169 41143ft 465kts
12-Sep-23 18:39 39.794860 -120.046093 169 41152ft 465kts
12-Sep-23 18:40 39.668791 -120.008292 169 41154ft 465kts
12-Sep-23 18:41 39.542721 -119.970632 169 41139ft 465kts
12-Sep-23 18:42 39.416665 -119.933116 169 41133ft 465kts
12-Sep-23 18:43 39.290832 -119.895805 169 41153ft 464kts
12-Sep-23 18:44 39.165125 -119.858667 169 41144ft 464kts
12-Sep-23 18:45 39.039291 -119.821629 169 41130ft 463kts
12-Sep-23 18:46 38.913603 -119.784767 170 41127ft 463kts
12-Sep-23 18:47 38.788027 -119.748072 170 41153ft 462kts
12-Sep-23 18:48 38.662691 -119.711578 170 41107ft 462kts
12-Sep-23 18:49 38.537464 -119.675137 170 41082ft 462kts
12-Sep-23 18:50 38.411868 -119.638892 170 41094ft 461kts
12-Sep-23 18:51 38.286975 -119.603017 170 41098ft 461kts
12-Sep-23 18:52 38.161363 -119.567448 170 41123ft 461kts
12-Sep-23 18:53 38.036547 -119.532220 170 41139ft 461kts
12-Sep-23 18:54 37.911450 -119.496825 170 41112ft 460kts
12-Sep-23 18:55 37.786404 -119.461597 170 41127ft 460kts
12-Sep-23 18:56 37.661337 -119.426541 171 41144ft 460kts
12-Sep-23 18:57 37.536214 -119.391601 171 41135ft 460kts
12-Sep-23 18:58 37.411440 -119.356878 171 41121ft 460kts
12-Sep-23 18:59 37.286334 -119.322183 171 41092ft 460kts
12-Sep-23 19:00 37.161521 -119.287686 171 41051ft 459kts
12-Sep-23 19:01 37.036702 -119.253303 171 41005ft 460kts
12-Sep-23 19:02 36.910367 -119.218621 171 40961ft 463kts
12-Sep-23 19:03 36.784535 -119.184193 171 40932ft 463kts
12-Sep-23 19:04 36.658874 -119.149926 172 40918ft 462kts
12-Sep-23 19:05 36.533414 -119.115828 172 40914ft 455kts
12-Sep-23 19:06 36.415613 -119.083835 172 40905ft 413kts
12-Sep-23 19:07 36.307348 -119.054597 173 40907ft 384kts
12-Sep-23 19:08 36.205811 -119.027292 173 40895ft 364kts
12-Sep-23 19:09 36.102588 -119.000142 177 37150ft 393kts
12-Sep-23 19:10 35.990874 -119.008505 191 34738ft 427kts
12-Sep-23 19:11 35.864808 -119.004472 169 33755ft 478kts
12-Sep-23 19:12 35.740070 -118.956613 166 33131ft 461kts
12-Sep-23 19:13 35.617673 -118.910651 166 32929ft 461kts
12-Sep-23 19:14 35.494600 -118.864682 167 32927ft 461kts
12-Sep-23 19:15 35.373019 -118.819514 167 32559ft 442kts
12-Sep-23 19:16 35.260956 -118.778046 167 31552ft 407kts
12-Sep-23 19:17 35.150382 -118.737366 166 28665ft 434kts
12-Sep-23 19:19 35.045512 -118.666268 134 25712ft 435kts
12-Sep-23 19:20 34.970874 -118.554076 132 24269ft 421kts
12-Sep-23 19:21 34.894294 -118.444421 131 24097ft 425kts
12-Sep-23 19:22 34.818263 -118.333731 131 24057ft 426kts
12-Sep-23 19:23 34.744851 -118.227175 131 24021ft 426kts
12-Sep-23 19:24 34.668713 -118.117528 132 23431ft 419kts
12-Sep-23 19:25 34.602920 -118.003361 119 20880ft 408kts
12-Sep-23 19:26 34.550331 -117.885748 119 18389ft 371kts
12-Sep-23 19:27 34.499195 -117.774310 119 16040ft 377kts
12-Sep-23 19:28 34.451582 -117.671016 120 15327ft 329kts
12-Sep-23 19:29 34.406511 -117.573294 119 13133ft 331kts
12-Sep-23 19:30 34.362741 -117.478596 119 11554ft 313kts
12-Sep-23 19:31 34.321235 -117.389057 119 10031ft 297kts
12-Sep-23 19:32 34.262436 -117.329904 166 8563ft 280kts
12-Sep-23 19:33 34.189023 -117.309111 166 7989ft 253kts
12-Sep-23 19:34 34.123704 -117.294957 196 7432ft 230kts
12-Sep-23 19:35 34.074453 -117.343547 225 5128ft 228kts
12-Sep-23 19:36 34.050579 -117.403813 289 3827ft 215kts
12-Sep-23 19:37 34.056818 -117.464026 269 2847ft 158kts
12-Sep-23 19:38 34.056924 -117.512898 269 2142ft 159kts
12-Sep-23 19:39 34.056895 -117.564269 269 1241ft 143kts
12-Sep-23 19:40 34.056825 -117.600648 267 952ft 18kts

Navigation Log

Ident Type
Flight plan parsing failed, navigation log unavailable